sensor_id;sensor_type;location;lat;lon;timestamp;P1;P2;P0
62778;PMS7003;48821;48.796;2.396;2023-02-28T00:00:15;29.00;25.00;20.50
62778;PMS7003;48821;48.796;2.396;2023-02-28T00:01:27;28.00;25.00;18.00
62778;PMS7003;48821;48.796;2.396;2023-02-28T00:02:40;27.67;24.00;16.00
62778;PMS7003;48821;48.796;2.396;2023-02-28T00:03:52;29.33;25.33;17.00
62778;PMS7003;48821;48.796;2.396;2023-02-28T00:05:04;31.33;27.00;18.67
62778;PMS7003;48821;48.796;2.396;2023-02-28T00:06:17;28.33;24.67;17.00
62778;PMS7003;48821;48.796;2.396;2023-02-28T00:07:29;26.33;24.67;20.33
62778;PMS7003;48821;48.796;2.396;2023-02-28T00:08:41;25.67;25.67;18.67
62778;PMS7003;48821;48.796;2.396;2023-02-28T00:09:53;32.67;28.33;19.00
62778;PMS7003;48821;48.796;2.396;2023-02-28T00:11:06;33.67;29.00;21.33
62778;PMS7003;48821;48.796;2.396;2023-02-28T00:12:22;29.00;25.67;17.67
62778;PMS7003;48821;48.796;2.396;2023-02-28T00:13:34;30.67;25.67;19.00
62778;PMS7003;48821;48.796;2.396;2023-02-28T00:14:48;24.00;22.67;18.00
62778;PMS7003;48821;48.796;2.396;2023-02-28T00:16:07;25.33;23.67;17.33
62778;PMS7003;48821;48.796;2.396;2023-02-28T00:17:22;27.80;24.80;16.80
62778;PMS7003;48821;48.796;2.396;2023-02-28T00:18:34;33.00;29.67;22.33
62778;PMS7003;48821;48.796;2.396;2023-02-28T00:19:49;25.00;21.67;17.67
62778;PMS7003;48821;48.796;2.396;2023-02-28T00:21:01;25.67;25.67;18.00
62778;PMS7003;48821;48.796;2.396;2023-02-28T00:22:13;25.67;24.33;17.33
62778;PMS7003;48821;48.796;2.396;2023-02-28T00:23:25;24.00;23.00;18.00
62778;PMS7003;48821;48.796;2.396;2023-02-28T00:24:37;28.00;25.00;18.00
62778;PMS7003;48821;48.796;2.396;2023-02-28T00:25:49;26.33;26.33;18.00
62778;PMS7003;48821;48.796;2.396;2023-02-28T00:27:00;30.00;26.00;18.50
62778;PMS7003;48821;48.796;2.396;2023-02-28T00:28:12;28.67;26.00;18.00
62778;PMS7003;48821;48.796;2.396;2023-02-28T00:29:24;32.00;27.00;18.00
62778;PMS7003;48821;48.796;2.396;2023-02-28T00:30:36;25.00;22.67;16.33
62778;PMS7003;48821;48.796;2.396;2023-02-28T00:31:48;32.67;28.00;19.67
62778;PMS7003;48821;48.796;2.396;2023-02-28T00:33:00;30.20;25.80;18.40
62778;PMS7003;48821;48.796;2.396;2023-02-28T00:34:12;30.33;23.33;17.00
62778;PMS7003;48821;48.796;2.396;2023-02-28T00:35:23;24.67;22.67;15.00
62778;PMS7003;48821;48.796;2.396;2023-02-28T00:36:35;32.67;26.33;19.33
62778;PMS7003;48821;48.796;2.396;2023-02-28T00:37:47;26.00;25.00;17.00
62778;PMS7003;48821;48.796;2.396;2023-02-28T00:38:59;29.00;27.67;18.67
62778;PMS7003;48821;48.796;2.396;2023-02-28T00:40:11;25.33;21.67;15.67
62778;PMS7003;48821;48.796;2.396;2023-02-28T00:41:23;29.00;25.00;19.00
62778;PMS7003;48821;48.796;2.396;2023-02-28T00:42:35;29.33;25.00;18.67
62778;PMS7003;48821;48.796;2.396;2023-02-28T00:43:47;24.67;23.00;16.00
62778;PMS7003;48821;48.796;2.396;2023-02-28T00:44:59;25.00;22.00;16.67
62778;PMS7003;48821;48.796;2.396;2023-02-28T00:46:11;22.00;20.67;15.00
62778;PMS7003;48821;48.796;2.396;2023-02-28T00:47:22;26.67;24.67;17.33
62778;PMS7003;48821;48.796;2.396;2023-02-28T00:48:34;25.00;22.33;16.33
62778;PMS7003;48821;48.796;2.396;2023-02-28T00:49:46;22.00;22.00;15.67
62778;PMS7003;48821;48.796;2.396;2023-02-28T00:50:58;22.67;21.00;16.00
62778;PMS7003;48821;48.796;2.396;2023-02-28T00:52:10;23.00;18.00;12.00
62778;PMS7003;48821;48.796;2.396;2023-02-28T00:53:21;22.67;19.67;15.67
62778;PMS7003;48821;48.796;2.396;2023-02-28T00:54:32;29.50;28.00;18.00
62778;PMS7003;48821;48.796;2.396;2023-02-28T00:55:45;27.80;24.60;17.60
62778;PMS7003;48821;48.796;2.396;2023-02-28T00:56:57;27.33;21.33;16.00
62778;PMS7003;48821;48.796;2.396;2023-02-28T00:58:09;28.00;25.33;17.67
62778;PMS7003;48821;48.796;2.396;2023-02-28T00:59:21;24.67;22.67;17.00
62778;PMS7003;48821;48.796;2.396;2023-02-28T01:00:33;30.00;26.00;18.67
62778;PMS7003;48821;48.796;2.396;2023-02-28T01:01:45;25.67;24.00;18.67
62778;PMS7003;48821;48.796;2.396;2023-02-28T01:02:57;25.33;25.33;18.00
62778;PMS7003;48821;48.796;2.396;2023-02-28T01:04:08;26.50;23.00;17.50
62778;PMS7003;48821;48.796;2.396;2023-02-28T01:05:20;25.67;23.00;16.00
62778;PMS7003;48821;48.796;2.396;2023-02-28T01:06:32;20.00;19.00;15.67
62778;PMS7003;48821;48.796;2.396;2023-02-28T01:07:43;26.33;21.00;14.67
62778;PMS7003;48821;48.796;2.396;2023-02-28T01:08:54;26.00;22.50;16.00
62778;PMS7003;48821;48.796;2.396;2023-02-28T01:10:06;23.67;21.33;16.33
62778;PMS7003;48821;48.796;2.396;2023-02-28T01:11:17;26.00;20.00;15.67
62778;PMS7003;48821;48.796;2.396;2023-02-28T01:12:29;24.33;23.00;16.00
62778;PMS7003;48821;48.796;2.396;2023-02-28T01:13:41;24.00;23.33;16.00
62778;PMS7003;48821;48.796;2.396;2023-02-28T01:14:54;27.00;24.00;16.67
62778;PMS7003;48821;48.796;2.396;2023-02-28T01:16:06;26.00;19.00;15.33
62778;PMS7003;48821;48.796;2.396;2023-02-28T01:17:17;31.00;23.00;15.00
62778;PMS7003;48821;48.796;2.396;2023-02-28T01:18:29;23.67;21.00;15.33
62778;PMS7003;48821;48.796;2.396;2023-02-28T01:19:42;21.33;20.00;15.00
62778;PMS7003;48821;48.796;2.396;2023-02-28T01:20:54;20.00;20.00;13.33
62778;PMS7003;48821;48.796;2.396;2023-02-28T01:22:05;24.00;23.00;17.67
62778;PMS7003;48821;48.796;2.396;2023-02-28T01:23:16;25.00;25.00;18.00
62778;PMS7003;48821;48.796;2.396;2023-02-28T01:24:29;26.00;22.50;15.83
62778;PMS7003;48821;48.796;2.396;2023-02-28T01:25:42;23.40;19.20;15.00
62778;PMS7003;48821;48.796;2.396;2023-02-28T01:26:54;20.67;18.00;13.67
62778;PMS7003;48821;48.796;2.396;2023-02-28T01:28:06;26.33;25.00;19.00
62778;PMS7003;48821;48.796;2.396;2023-02-28T01:29:17;28.50;24.50;17.00
62778;PMS7003;48821;48.796;2.396;2023-02-28T01:30:28;19.33;18.00;12.67
62778;PMS7003;48821;48.796;2.396;2023-02-28T01:31:40;23.00;23.00;15.60
62778;PMS7003;48821;48.796;2.396;2023-02-28T01:32:52;28.00;25.33;16.33
62778;PMS7003;48821;48.796;2.396;2023-02-28T01:34:04;23.00;23.00;17.00
62778;PMS7003;48821;48.796;2.396;2023-02-28T01:35:15;27.75;24.00;16.50
62778;PMS7003;48821;48.796;2.396;2023-02-28T01:36:29;22.67;19.83;15.00
62778;PMS7003;48821;48.796;2.396;2023-02-28T01:37:41;26.40;21.80;15.00
62778;PMS7003;48821;48.796;2.396;2023-02-28T01:38:53;25.33;21.67;16.00
62778;PMS7003;48821;48.796;2.396;2023-02-28T01:40:05;26.40;24.00;18.40
62778;PMS7003;48821;48.796;2.396;2023-02-28T01:42:29;21.50;21.50;14.00
62778;PMS7003;48821;48.796;2.396;2023-02-28T01:46:25;19.00;19.00;14.00
62778;PMS7003;48821;48.796;2.396;2023-02-28T01:47:38;22.00;18.00;15.00
62778;PMS7003;48821;48.796;2.396;2023-02-28T01:48:54;19.67;14.00;6.33
62778;PMS7003;48821;48.796;2.396;2023-02-28T01:50:17;23.50;20.50;14.83
62778;PMS7003;48821;48.796;2.396;2023-02-28T01:51:41;21.67;21.67;15.00
62778;PMS7003;48821;48.796;2.396;2023-02-28T01:53:12;20.00;19.00;15.00
62778;PMS7003;48821;48.796;2.396;2023-02-28T01:54:29;28.00;23.00;16.00
62778;PMS7003;48821;48.796;2.396;2023-02-28T01:55:45;23.00;21.00;15.67
62778;PMS7003;48821;48.796;2.396;2023-02-28T01:57:13;24.67;23.00;17.00
62778;PMS7003;48821;48.796;2.396;2023-02-28T01:58:28;24.00;19.50;15.00
62778;PMS7003;48821;48.796;2.396;2023-02-28T01:59:42;22.00;18.17;14.67
62778;PMS7003;48821;48.796;2.396;2023-02-28T02:01:02;23.33;21.67;14.00
62778;PMS7003;48821;48.796;2.396;2023-02-28T02:02:14;20.00;17.50;14.50
62778;PMS7003;48821;48.796;2.396;2023-02-28T02:03:28;21.67;21.33;14.67
62778;PMS7003;48821;48.796;2.396;2023-02-28T02:04:51;27.67;23.00;16.00
62778;PMS7003;48821;48.796;2.396;2023-02-28T02:06:08;23.50;22.00;15.83
62778;PMS7003;48821;48.796;2.396;2023-02-28T02:07:19;28.67;21.33;16.67
62778;PMS7003;48821;48.796;2.396;2023-02-28T02:08:32;23.00;20.67;16.00
62778;PMS7003;48821;48.796;2.396;2023-02-28T02:09:44;18.40;17.00;14.40
62778;PMS7003;48821;48.796;2.396;2023-02-28T02:10:56;20.33;19.33;15.00
62778;PMS7003;48821;48.796;2.396;2023-02-28T02:16:13;29.00;22.67;16.00
62778;PMS7003;48821;48.796;2.396;2023-02-28T02:17:32;22.33;18.67;13.67
62778;PMS7003;48821;48.796;2.396;2023-02-28T02:18:54;21.67;21.00;15.00
62778;PMS7003;48821;48.796;2.396;2023-02-28T02:25:03;19.67;19.67;14.00
62778;PMS7003;48821;48.796;2.396;2023-02-28T02:40:16;25.33;21.33;14.67
62778;PMS7003;48821;48.796;2.396;2023-02-28T02:41:48;23.33;20.00;15.00
62778;PMS7003;48821;48.796;2.396;2023-02-28T02:43:06;21.33;20.00;14.33
62778;PMS7003;48821;48.796;2.396;2023-02-28T02:44:43;25.50;20.00;14.00
62778;PMS7003;48821;48.796;2.396;2023-02-28T02:46:02;21.33;17.67;12.67
62778;PMS7003;48821;48.796;2.396;2023-02-28T02:47:18;21.00;19.00;15.00
62778;PMS7003;48821;48.796;2.396;2023-02-28T02:48:34;21.00;17.50;14.00
62778;PMS7003;48821;48.796;2.396;2023-02-28T02:49:49;17.00;17.00;15.00
62778;PMS7003;48821;48.796;2.396;2023-02-28T02:51:06;22.67;21.00;16.00
62778;PMS7003;48821;48.796;2.396;2023-02-28T02:52:23;19.33;17.67;13.67
62778;PMS7003;48821;48.796;2.396;2023-02-28T02:53:43;23.00;20.50;15.00
62778;PMS7003;48821;48.796;2.396;2023-02-28T02:55:00;26.00;20.00;15.00
62778;PMS7003;48821;48.796;2.396;2023-02-28T02:56:15;24.67;20.00;15.00
62778;PMS7003;48821;48.796;2.396;2023-02-28T02:57:34;22.00;21.33;15.67
62778;PMS7003;48821;48.796;2.396;2023-02-28T02:58:53;21.67;20.00;14.17
62778;PMS7003;48821;48.796;2.396;2023-02-28T03:00:12;23.33;20.67;15.00
62778;PMS7003;48821;48.796;2.396;2023-02-28T03:01:27;22.00;20.00;14.50
62778;PMS7003;48821;48.796;2.396;2023-02-28T03:02:39;21.00;19.50;14.50
62778;PMS7003;48821;48.796;2.396;2023-02-28T03:03:55;25.33;20.67;15.33
62778;PMS7003;48821;48.796;2.396;2023-02-28T03:05:14;17.00;15.00;13.00
62778;PMS7003;48821;48.796;2.396;2023-02-28T03:06:34;17.00;17.00;13.83
62778;PMS7003;48821;48.796;2.396;2023-02-28T03:07:45;23.00;21.50;15.50
62778;PMS7003;48821;48.796;2.396;2023-02-28T03:08:56;16.00;16.00;14.00
62778;PMS7003;48821;48.796;2.396;2023-02-28T03:12:04;21.67;20.17;14.67
62778;PMS7003;48821;48.796;2.396;2023-02-28T03:13:27;21.80;15.80;13.40
62778;PMS7003;48821;48.796;2.396;2023-02-28T03:14:50;24.00;20.17;15.00
62778;PMS7003;48821;48.796;2.396;2023-02-28T03:18:03;16.50;16.00;12.00
62778;PMS7003;48821;48.796;2.396;2023-02-28T03:27:00;20.17;17.33;13.33
62778;PMS7003;48821;48.796;2.396;2023-02-28T03:29:47;15.50;15.00;12.00
62778;PMS7003;48821;48.796;2.396;2023-02-28T03:31:36;17.33;17.33;13.83
62778;PMS7003;48821;48.796;2.396;2023-02-28T03:34:39;21.17;19.83;12.83
62778;PMS7003;48821;48.796;2.396;2023-02-28T03:35:59;15.33;15.33;12.00
62778;PMS7003;48821;48.796;2.396;2023-02-28T03:37:18;19.83;17.67;13.67
62778;PMS7003;48821;48.796;2.396;2023-02-28T03:38:36;20.17;18.67;13.33
62778;PMS7003;48821;48.796;2.396;2023-02-28T03:39:56;15.17;15.17;13.00
62778;PMS7003;48821;48.796;2.396;2023-02-28T03:41:15;20.80;17.80;14.00
62778;PMS7003;48821;48.796;2.396;2023-02-28T03:42:34;15.00;14.00;9.00
62778;PMS7003;48821;48.796;2.396;2023-02-28T03:43:55;17.17;15.67;12.83
62778;PMS7003;48821;48.796;2.396;2023-02-28T03:45:12;20.00;19.00;13.00
62778;PMS7003;48821;48.796;2.396;2023-02-28T03:46:28;20.50;19.00;13.00
62778;PMS7003;48821;48.796;2.396;2023-02-28T03:49:17;15.67;13.00;9.00
62778;PMS7003;48821;48.796;2.396;2023-02-28T03:50:37;18.17;13.83;11.33
62778;PMS7003;48821;48.796;2.396;2023-02-28T03:51:51;21.00;16.00;12.50
62778;PMS7003;48821;48.796;2.396;2023-02-28T03:53:06;17.00;14.33;9.00
62778;PMS7003;48821;48.796;2.396;2023-02-28T03:54:29;20.67;18.67;14.67
62778;PMS7003;48821;48.796;2.396;2023-02-28T03:55:45;22.50;15.50;13.00
62778;PMS7003;48821;48.796;2.396;2023-02-28T03:57:04;21.00;19.00;13.00
62778;PMS7003;48821;48.796;2.396;2023-02-28T03:58:26;19.75;15.00;10.50
62778;PMS7003;48821;48.796;2.396;2023-02-28T03:59:51;18.83;15.50;10.83
62778;PMS7003;48821;48.796;2.396;2023-02-28T04:02:35;14.50;13.00;9.00
62778;PMS7003;48821;48.796;2.396;2023-02-28T04:03:47;17.00;17.00;13.00
62778;PMS7003;48821;48.796;2.396;2023-02-28T04:04:58;21.00;18.50;12.50
62778;PMS7003;48821;48.796;2.396;2023-02-28T04:06:15;18.67;15.00;13.00
62778;PMS7003;48821;48.796;2.396;2023-02-28T04:07:29;18.00;18.00;12.00
62778;PMS7003;48821;48.796;2.396;2023-02-28T04:08:43;27.00;19.67;15.00
62778;PMS7003;48821;48.796;2.396;2023-02-28T04:09:57;16.33;14.33;10.17
62778;PMS7003;48821;48.796;2.396;2023-02-28T04:11:13;16.00;15.00;10.50
62778;PMS7003;48821;48.796;2.396;2023-02-28T04:12:26;12.00;12.00;8.00
62778;PMS7003;48821;48.796;2.396;2023-02-28T04:13:37;19.00;18.00;13.00
62778;PMS7003;48821;48.796;2.396;2023-02-28T04:14:50;16.33;14.67;12.00
62778;PMS7003;48821;48.796;2.396;2023-02-28T04:16:06;20.20;18.00;12.60
62778;PMS7003;48821;48.796;2.396;2023-02-28T04:17:22;18.00;15.00;12.50
62778;PMS7003;48821;48.796;2.396;2023-02-28T04:18:36;19.67;17.17;12.67
62778;PMS7003;48821;48.796;2.396;2023-02-28T04:19:49;18.83;16.67;14.17
62778;PMS7003;48821;48.796;2.396;2023-02-28T04:21:02;16.33;16.17;13.67
62778;PMS7003;48821;48.796;2.396;2023-02-28T04:22:13;19.00;19.00;13.50
62778;PMS7003;48821;48.796;2.396;2023-02-28T04:23:24;18.00;16.00;10.00
62778;PMS7003;48821;48.796;2.396;2023-02-28T04:24:35;20.25;16.25;13.00
62778;PMS7003;48821;48.796;2.396;2023-02-28T04:25:47;22.00;18.33;13.00
62778;PMS7003;48821;48.796;2.396;2023-02-28T04:26:58;20.50;18.50;13.00
62778;PMS7003;48821;48.796;2.396;2023-02-28T04:28:09;20.00;16.00;13.00
62778;PMS7003;48821;48.796;2.396;2023-02-28T04:29:22;21.00;18.50;14.00
62778;PMS7003;48821;48.796;2.396;2023-02-28T04:30:33;18.00;18.00;13.00
62778;PMS7003;48821;48.796;2.396;2023-02-28T04:31:44;19.50;18.00;12.50
62778;PMS7003;48821;48.796;2.396;2023-02-28T04:32:55;19.00;16.50;12.00
62778;PMS7003;48821;48.796;2.396;2023-02-28T04:34:07;19.75;18.25;13.75
62778;PMS7003;48821;48.796;2.396;2023-02-28T04:35:20;21.50;16.17;12.50
62778;PMS7003;48821;48.796;2.396;2023-02-28T04:36:31;14.50;14.00;12.00
62778;PMS7003;48821;48.796;2.396;2023-02-28T04:37:43;19.80;19.20;13.40
62778;PMS7003;48821;48.796;2.396;2023-02-28T04:38:53;20.50;19.50;14.00
62778;PMS7003;48821;48.796;2.396;2023-02-28T04:40:05;16.00;15.00;12.50
62778;PMS7003;48821;48.796;2.396;2023-02-28T04:41:16;19.50;13.50;10.00
62778;PMS7003;48821;48.796;2.396;2023-02-28T04:42:27;18.00;18.00;14.00
62778;PMS7003;48821;48.796;2.396;2023-02-28T04:43:38;17.50;14.00;10.50
62778;PMS7003;48821;48.796;2.396;2023-02-28T04:44:49;21.50;15.50;12.50
62778;PMS7003;48821;48.796;2.396;2023-02-28T04:46:00;19.67;14.00;12.33
62778;PMS7003;48821;48.796;2.396;2023-02-28T04:47:15;15.83;15.00;11.50
62778;PMS7003;48821;48.796;2.396;2023-02-28T04:48:28;15.25;14.25;9.75
62778;PMS7003;48821;48.796;2.396;2023-02-28T04:49:39;15.00;13.50;10.00
62778;PMS7003;48821;48.796;2.396;2023-02-28T04:50:51;10.00;9.00;7.00
62778;PMS7003;48821;48.796;2.396;2023-02-28T04:52:02;20.50;18.00;12.50
62778;PMS7003;48821;48.796;2.396;2023-02-28T04:53:13;16.00;14.00;10.00
62778;PMS7003;48821;48.796;2.396;2023-02-28T04:54:25;16.00;16.00;13.00
62778;PMS7003;48821;48.796;2.396;2023-02-28T04:55:36;14.00;13.25;9.25
62778;PMS7003;48821;48.796;2.396;2023-02-28T04:56:50;15.67;13.67;8.33
62778;PMS7003;48821;48.796;2.396;2023-02-28T04:58:01;17.00;16.00;14.00
62778;PMS7003;48821;48.796;2.396;2023-02-28T04:59:13;20.00;20.00;15.00
62778;PMS7003;48821;48.796;2.396;2023-02-28T05:00:24;14.00;13.50;9.00
62778;PMS7003;48821;48.796;2.396;2023-02-28T05:01:35;20.00;14.00;12.00
62778;PMS7003;48821;48.796;2.396;2023-02-28T05:02:46;15.00;15.00;13.00
62778;PMS7003;48821;48.796;2.396;2023-02-28T05:03:58;15.75;15.75;12.00
62778;PMS7003;48821;48.796;2.396;2023-02-28T05:05:09;16.67;15.33;10.67
62778;PMS7003;48821;48.796;2.396;2023-02-28T05:06:21;18.50;15.00;10.00
62778;PMS7003;48821;48.796;2.396;2023-02-28T05:07:33;16.00;14.50;12.00
62778;PMS7003;48821;48.796;2.396;2023-02-28T05:08:44;15.00;13.50;12.50
62778;PMS7003;48821;48.796;2.396;2023-02-28T05:09:55;18.50;17.50;14.00
62778;PMS7003;48821;48.796;2.396;2023-02-28T05:11:15;18.33;15.33;12.67
62778;PMS7003;48821;48.796;2.396;2023-02-28T05:12:29;18.00;13.00;11.50
62778;PMS7003;48821;48.796;2.396;2023-02-28T05:13:39;19.50;16.00;13.00
62778;PMS7003;48821;48.796;2.396;2023-02-28T05:14:50;19.50;17.50;14.00
62778;PMS7003;48821;48.796;2.396;2023-02-28T05:16:01;13.00;13.00;9.00
62778;PMS7003;48821;48.796;2.396;2023-02-28T05:17:12;17.75;15.25;11.00
62778;PMS7003;48821;48.796;2.396;2023-02-28T05:18:23;18.50;15.00;12.00
62778;PMS7003;48821;48.796;2.396;2023-02-28T05:19:34;24.50;18.00;13.00
62778;PMS7003;48821;48.796;2.396;2023-02-28T05:20:45;19.50;17.50;14.00
62778;PMS7003;48821;48.796;2.396;2023-02-28T05:21:56;16.00;15.00;13.00
62778;PMS7003;48821;48.796;2.396;2023-02-28T05:23:09;19.00;18.40;10.80
62778;PMS7003;48821;48.796;2.396;2023-02-28T05:24:22;15.00;15.00;12.00
62778;PMS7003;48821;48.796;2.396;2023-02-28T05:25:33;19.50;18.50;13.00
62778;PMS7003;48821;48.796;2.396;2023-02-28T05:26:44;16.00;15.00;11.50
62778;PMS7003;48821;48.796;2.396;2023-02-28T05:27:56;16.00;13.00;9.25
62778;PMS7003;48821;48.796;2.396;2023-02-28T05:29:06;14.00;13.67;9.33
62778;PMS7003;48821;48.796;2.396;2023-02-28T05:30:18;15.50;14.25;11.50
62778;PMS7003;48821;48.796;2.396;2023-02-28T05:31:29;17.00;15.50;12.00
62778;PMS7003;48821;48.796;2.396;2023-02-28T05:32:40;12.00;9.00;9.00
62778;PMS7003;48821;48.796;2.396;2023-02-28T05:33:55;20.00;15.00;11.50
62778;PMS7003;48821;48.796;2.396;2023-02-28T05:35:06;16.67;15.00;10.00
62778;PMS7003;48821;48.796;2.396;2023-02-28T05:36:17;14.00;14.00;11.33
62778;PMS7003;48821;48.796;2.396;2023-02-28T05:37:28;14.33;12.67;9.00
62778;PMS7003;48821;48.796;2.396;2023-02-28T05:38:39;12.67;12.00;9.00
62778;PMS7003;48821;48.796;2.396;2023-02-28T05:39:50;15.00;14.33;11.67
62778;PMS7003;48821;48.796;2.396;2023-02-28T05:41:04;17.00;14.00;12.00
62778;PMS7003;48821;48.796;2.396;2023-02-28T05:42:16;15.00;12.67;8.33
62778;PMS7003;48821;48.796;2.396;2023-02-28T05:43:27;17.00;15.00;11.25
62778;PMS7003;48821;48.796;2.396;2023-02-28T05:44:37;15.50;13.50;11.50
62778;PMS7003;48821;48.796;2.396;2023-02-28T05:45:48;19.00;17.50;12.00
62778;PMS7003;48821;48.796;2.396;2023-02-28T05:47:00;23.00;18.00;13.00
62778;PMS7003;48821;48.796;2.396;2023-02-28T05:48:11;17.00;13.00;11.50
62778;PMS7003;48821;48.796;2.396;2023-02-28T05:49:24;17.33;16.50;12.67
62778;PMS7003;48821;48.796;2.396;2023-02-28T05:50:36;20.00;15.75;10.75
62778;PMS7003;48821;48.796;2.396;2023-02-28T05:51:46;18.00;16.00;12.00
62778;PMS7003;48821;48.796;2.396;2023-02-28T05:52:57;18.50;17.00;13.00
62778;PMS7003;48821;48.796;2.396;2023-02-28T05:54:08;15.25;14.00;10.25
62778;PMS7003;48821;48.796;2.396;2023-02-28T05:55:19;14.00;14.00;11.50
62778;PMS7003;48821;48.796;2.396;2023-02-28T05:56:30;18.00;18.00;14.00
62778;PMS7003;48821;48.796;2.396;2023-02-28T05:57:41;16.00;15.00;12.50
62778;PMS7003;48821;48.796;2.396;2023-02-28T05:58:53;25.33;23.00;15.33
62778;PMS7003;48821;48.796;2.396;2023-02-28T06:00:04;25.00;19.00;14.00
62778;PMS7003;48821;48.796;2.396;2023-02-28T06:02:45;22.17;19.33;14.17
62778;PMS7003;48821;48.796;2.396;2023-02-28T06:03:59;21.00;19.00;14.17
62778;PMS7003;48821;48.796;2.396;2023-02-28T06:05:13;21.50;15.50;10.50
62778;PMS7003;48821;48.796;2.396;2023-02-28T06:06:27;19.60;18.80;14.20
62778;PMS7003;48821;48.796;2.396;2023-02-28T06:07:40;21.20;14.00;10.80
62778;PMS7003;48821;48.796;2.396;2023-02-28T06:08:50;19.00;15.00;13.00
62778;PMS7003;48821;48.796;2.396;2023-02-28T06:10:01;21.00;20.50;15.00
62778;PMS7003;48821;48.796;2.396;2023-02-28T06:11:13;23.20;19.00;15.00
62778;PMS7003;48821;48.796;2.396;2023-02-28T06:12:25;24.67;20.33;15.00
62778;PMS7003;48821;48.796;2.396;2023-02-28T06:13:36;26.67;22.67;16.00
62778;PMS7003;48821;48.796;2.396;2023-02-28T06:14:48;27.67;22.00;16.00
62778;PMS7003;48821;48.796;2.396;2023-02-28T06:16:00;23.67;22.67;16.33
62778;PMS7003;48821;48.796;2.396;2023-02-28T06:17:12;27.33;25.33;17.67
62778;PMS7003;48821;48.796;2.396;2023-02-28T06:18:24;24.33;22.00;16.00
62778;PMS7003;48821;48.796;2.396;2023-02-28T06:19:39;21.67;19.67;13.00
62778;PMS7003;48821;48.796;2.396;2023-02-28T06:20:52;25.33;21.00;15.00
62778;PMS7003;48821;48.796;2.396;2023-02-28T06:22:05;19.00;19.00;16.00
62778;PMS7003;48821;48.796;2.396;2023-02-28T06:23:16;25.67;24.00;16.33
62778;PMS7003;48821;48.796;2.396;2023-02-28T06:24:28;26.33;22.67;16.33
62778;PMS7003;48821;48.796;2.396;2023-02-28T06:25:44;27.67;26.00;18.67
62778;PMS7003;48821;48.796;2.396;2023-02-28T06:26:56;24.00;21.67;16.00
62778;PMS7003;48821;48.796;2.396;2023-02-28T06:28:08;28.00;26.00;19.00
62778;PMS7003;48821;48.796;2.396;2023-02-28T06:29:20;26.00;23.33;17.67
62778;PMS7003;48821;48.796;2.396;2023-02-28T06:30:32;26.33;23.00;17.67
62778;PMS7003;48821;48.796;2.396;2023-02-28T06:31:45;32.00;27.67;20.00
62778;PMS7003;48821;48.796;2.396;2023-02-28T06:32:57;27.00;26.00;20.33
62778;PMS7003;48821;48.796;2.396;2023-02-28T06:34:09;30.33;27.00;18.67
62778;PMS7003;48821;48.796;2.396;2023-02-28T06:35:22;35.33;29.33;20.33
62778;PMS7003;48821;48.796;2.396;2023-02-28T06:36:34;26.33;24.33;19.00
62778;PMS7003;48821;48.796;2.396;2023-02-28T06:37:46;33.33;31.67;18.67
62778;PMS7003;48821;48.796;2.396;2023-02-28T06:38:58;30.00;29.00;21.00
62778;PMS7003;48821;48.796;2.396;2023-02-28T06:40:10;32.00;26.33;20.00
62778;PMS7003;48821;48.796;2.396;2023-02-28T06:41:26;31.67;30.33;21.33
62778;PMS7003;48821;48.796;2.396;2023-02-28T06:42:37;30.33;26.33;20.67
62778;PMS7003;48821;48.796;2.396;2023-02-28T06:43:49;25.00;19.00;14.00
62778;PMS7003;48821;48.796;2.396;2023-02-28T06:45:01;29.67;26.67;20.33
62778;PMS7003;48821;48.796;2.396;2023-02-28T06:46:13;31.00;28.00;20.00
62778;PMS7003;48821;48.796;2.396;2023-02-28T06:47:24;30.50;25.50;20.00
62778;PMS7003;48821;48.796;2.396;2023-02-28T06:48:36;32.80;31.40;23.40
62778;PMS7003;48821;48.796;2.396;2023-02-28T06:49:48;31.00;29.00;19.00
62778;PMS7003;48821;48.796;2.396;2023-02-28T06:51:07;33.33;31.00;23.00
62778;PMS7003;48821;48.796;2.396;2023-02-28T06:52:24;35.67;33.00;22.67
62778;PMS7003;48821;48.796;2.396;2023-02-28T06:53:36;36.67;31.00;20.33
62778;PMS7003;48821;48.796;2.396;2023-02-28T06:54:48;67.67;50.67;31.00
62778;PMS7003;48821;48.796;2.396;2023-02-28T06:56:12;26.00;26.00;23.00
62778;PMS7003;48821;48.796;2.396;2023-02-28T06:57:23;42.50;33.00;23.00
62778;PMS7003;48821;48.796;2.396;2023-02-28T06:58:36;55.33;39.33;26.00
62778;PMS7003;48821;48.796;2.396;2023-02-28T06:59:47;34.50;33.00;24.00
62778;PMS7003;48821;48.796;2.396;2023-02-28T07:00:59;37.50;34.50;24.00
62778;PMS7003;48821;48.796;2.396;2023-02-28T07:02:12;24.00;22.80;12.60
62778;PMS7003;48821;48.796;2.396;2023-02-28T07:03:22;40.00;36.50;24.00
62778;PMS7003;48821;48.796;2.396;2023-02-28T07:04:34;32.00;29.40;22.00
62778;PMS7003;48821;48.796;2.396;2023-02-28T07:05:46;37.00;34.67;24.00
62778;PMS7003;48821;48.796;2.396;2023-02-28T07:06:58;38.00;29.67;22.67
62778;PMS7003;48821;48.796;2.396;2023-02-28T07:08:10;31.20;29.20;19.60
62778;PMS7003;48821;48.796;2.396;2023-02-28T07:09:22;39.67;35.33;23.33
62778;PMS7003;48821;48.796;2.396;2023-02-28T07:10:36;34.33;30.33;20.33
62778;PMS7003;48821;48.796;2.396;2023-02-28T07:11:47;40.00;32.00;23.50
62778;PMS7003;48821;48.796;2.396;2023-02-28T07:12:59;44.33;37.00;26.00
62778;PMS7003;48821;48.796;2.396;2023-02-28T07:14:10;44.00;37.00;26.00
62778;PMS7003;48821;48.796;2.396;2023-02-28T07:15:22;40.33;34.33;24.33
62778;PMS7003;48821;48.796;2.396;2023-02-28T07:16:35;37.67;35.00;24.00
62778;PMS7003;48821;48.796;2.396;2023-02-28T07:17:45;44.00;36.00;24.00
62778;PMS7003;48821;48.796;2.396;2023-02-28T07:18:57;41.33;37.00;25.33
62778;PMS7003;48821;48.796;2.396;2023-02-28T07:20:09;47.80;38.60;27.40
62778;PMS7003;48821;48.796;2.396;2023-02-28T07:21:21;40.50;36.00;25.50
62778;PMS7003;48821;48.796;2.396;2023-02-28T07:22:33;38.50;32.00;24.50
62778;PMS7003;48821;48.796;2.396;2023-02-28T07:23:45;47.00;37.80;25.80
62778;PMS7003;48821;48.796;2.396;2023-02-28T07:24:57;36.67;29.00;19.00
62778;PMS7003;48821;48.796;2.396;2023-02-28T07:26:11;39.33;36.00;25.00
62778;PMS7003;48821;48.796;2.396;2023-02-28T07:27:26;46.40;36.00;22.40
62778;PMS7003;48821;48.796;2.396;2023-02-28T07:28:38;49.00;38.80;25.20
62778;PMS7003;48821;48.796;2.396;2023-02-28T07:29:50;43.67;36.00;25.00
62778;PMS7003;48821;48.796;2.396;2023-02-28T07:31:05;46.50;39.00;26.00
62778;PMS7003;48821;48.796;2.396;2023-02-28T07:32:18;41.00;38.67;26.00
62778;PMS7003;48821;48.796;2.396;2023-02-28T07:33:29;45.50;36.50;26.00
62778;PMS7003;48821;48.796;2.396;2023-02-28T07:34:41;41.00;36.00;24.00
62778;PMS7003;48821;48.796;2.396;2023-02-28T07:35:59;47.00;39.67;26.00
62778;PMS7003;48821;48.796;2.396;2023-02-28T07:37:11;46.00;39.00;28.50
62778;PMS7003;48821;48.796;2.396;2023-02-28T07:38:23;47.33;40.00;26.00